createdAt,value
2022-10-09T00:01:19.403Z,3.80
2022-10-09T00:03:49.550Z,3.30
2022-10-09T00:06:20.461Z,3.13
2022-10-09T00:08:48.296Z,3.27
2022-10-09T00:11:20.558Z,2.90
2022-10-09T00:13:50.858Z,3.03
2022-10-09T00:16:19.971Z,2.73
2022-10-09T00:18:48.705Z,3.17
2022-10-09T00:21:21.322Z,3.30
2022-10-09T00:23:50.680Z,3.23
2022-10-09T00:26:19.476Z,2.53
2022-10-09T00:28:47.369Z,2.87
2022-10-09T00:31:15.780Z,2.40
2022-10-09T00:33:43.476Z,2.53
2022-10-09T00:36:13.312Z,2.80
2022-10-09T00:38:41.502Z,2.93
2022-10-09T00:41:11.058Z,2.43
2022-10-09T00:43:44.179Z,2.90
2022-10-09T00:46:25.506Z,2.90
2022-10-09T00:49:05.513Z,2.73
2022-10-09T00:51:34.910Z,2.77
2022-10-09T00:54:07.258Z,3.00
2022-10-09T00:56:35.224Z,2.60
2022-10-09T00:59:05.346Z,2.87
2022-10-09T01:01:33.162Z,2.73
2022-10-09T01:04:00.549Z,3.10
2022-10-09T01:06:45.975Z,3.13
2022-10-09T01:09:19.903Z,2.83
2022-10-09T01:11:57.377Z,3.10
2022-10-09T01:14:31.541Z,2.90
2022-10-09T01:17:13.120Z,2.83
2022-10-09T01:20:15.188Z,2.83
2022-10-09T01:23:12.580Z,2.70
2022-10-09T01:25:58.227Z,2.87
2022-10-09T01:28:30.189Z,3.37
2022-10-09T01:31:01.600Z,2.77
2022-10-09T01:33:31.221Z,3.33
2022-10-09T01:36:00.870Z,3.37
2022-10-09T01:38:30.341Z,3.23
2022-10-09T01:40:58.850Z,3.30
2022-10-09T01:43:27.449Z,3.13
2022-10-09T01:46:21.186Z,3.83
2022-10-09T01:49:00.033Z,2.93
2022-10-09T01:51:40.697Z,3.17
2022-10-09T01:54:14.569Z,3.03
2022-10-09T01:56:47.931Z,3.00
2022-10-09T01:59:19.761Z,3.07
2022-10-09T02:01:50.340Z,2.80
2022-10-09T02:04:19.591Z,3.00
2022-10-09T02:06:48.121Z,3.30
2022-10-09T02:09:18.376Z,3.07
2022-10-09T02:11:53.088Z,2.60
2022-10-09T02:14:21.936Z,2.87
2022-10-09T02:16:59.663Z,3.20
2022-10-09T02:19:37.179Z,2.73
2022-10-09T02:22:13.040Z,3.00
2022-10-09T02:24:42.380Z,3.27
2022-10-09T02:27:12.200Z,2.87
2022-10-09T02:29:43.703Z,3.30
2022-10-09T02:32:12.686Z,3.13
2022-10-09T02:34:40.416Z,3.33
2022-10-09T02:37:08.646Z,3.63
2022-10-09T02:39:36.370Z,3.33
2022-10-09T02:42:04.150Z,3.00
2022-10-09T02:44:31.503Z,3.83
2022-10-09T02:47:00.157Z,3.30
2022-10-09T02:49:27.524Z,4.60
2022-10-09T02:51:54.786Z,3.47
2022-10-09T02:54:21.998Z,4.67
2022-10-09T02:56:49.394Z,3.40
2022-10-09T02:59:16.869Z,4.30
2022-10-09T03:01:44.892Z,3.13
2022-10-09T03:04:13.796Z,4.00
2022-10-09T03:06:41.045Z,3.83
2022-10-09T03:09:08.298Z,3.30
2022-10-09T03:11:35.639Z,3.60
2022-10-09T03:14:02.994Z,3.57
2022-10-09T03:16:30.352Z,3.13
2022-10-09T03:18:58.494Z,4.13
2022-10-09T03:21:28.755Z,3.70
2022-10-09T03:23:56.478Z,3.70
2022-10-09T03:26:27.313Z,3.47
2022-10-09T03:28:55.648Z,4.10
2022-10-09T03:34:13.626Z,4.00
2022-10-09T03:36:42.387Z,3.50
2022-10-09T03:39:09.972Z,3.90
2022-10-09T03:41:37.287Z,4.50
2022-10-09T03:44:04.849Z,4.10
2022-10-09T03:46:32.163Z,3.40
2022-10-09T03:48:59.481Z,3.80
2022-10-09T03:51:26.864Z,3.50
2022-10-09T03:53:55.489Z,3.57
2022-10-09T03:56:22.713Z,3.23
2022-10-09T03:58:50.088Z,3.33
2022-10-09T04:01:17.360Z,4.03
2022-10-09T04:03:44.625Z,3.50
2022-10-09T04:06:12.509Z,3.60
2022-10-09T04:08:39.836Z,3.60
2022-10-09T04:11:08.549Z,3.20
2022-10-09T04:13:35.894Z,3.50
2022-10-09T04:16:03.182Z,4.53
2022-10-09T04:18:31.162Z,3.63
2022-10-09T04:20:58.457Z,3.73
2022-10-09T04:23:27.832Z,4.20
2022-10-09T04:25:58.254Z,4.63
2022-10-09T04:28:29.087Z,4.53
2022-10-09T04:30:57.536Z,4.47
2022-10-09T04:33:26.280Z,4.40
2022-10-09T04:35:57.694Z,4.63
2022-10-09T04:38:25.666Z,5.17
2022-10-09T04:40:57.180Z,4.37
2022-10-09T04:43:26.090Z,4.70
2022-10-09T04:45:53.544Z,4.53
2022-10-09T04:48:21.045Z,4.70
2022-10-09T04:50:49.784Z,4.40
2022-10-09T04:53:17.133Z,4.63
2022-10-09T04:55:45.319Z,4.90
2022-10-09T04:58:14.113Z,4.90
2022-10-09T05:00:45.971Z,4.00
2022-10-09T05:03:13.503Z,5.13
2022-10-09T05:05:40.916Z,5.30
2022-10-09T05:08:08.319Z,4.53
2022-10-09T05:10:35.682Z,5.17
2022-10-09T05:13:04.726Z,5.20
2022-10-09T05:15:35.771Z,4.63
2022-10-09T05:18:04.648Z,4.13
2022-10-09T05:20:31.954Z,4.57
2022-10-09T05:22:59.297Z,4.67
2022-10-09T05:25:26.599Z,4.60
2022-10-09T05:27:53.808Z,5.03
2022-10-09T05:30:21.114Z,4.57
2022-10-09T05:32:48.645Z,4.50
2022-10-09T05:35:17.469Z,5.13
2022-10-09T05:37:45.631Z,4.37
2022-10-09T05:40:12.934Z,4.73
2022-10-09T05:42:40.219Z,3.90
2022-10-09T05:45:09.614Z,4.40
2022-10-09T05:47:36.869Z,3.87
2022-10-09T05:50:04.928Z,4.37
2022-10-09T05:52:35.809Z,4.50
2022-10-09T05:55:03.387Z,5.47
2022-10-09T05:57:30.635Z,4.60
2022-10-09T05:59:58.201Z,4.83
2022-10-09T06:02:25.590Z,4.90
2022-10-09T06:04:52.884Z,4.80
2022-10-09T06:07:20.165Z,4.53
2022-10-09T06:09:48.759Z,5.23
2022-10-09T06:12:16.047Z,5.10
2022-10-09T06:14:43.312Z,5.30
2022-10-09T06:17:10.567Z,5.00
2022-10-09T06:19:37.916Z,4.90
2022-10-09T06:22:05.192Z,5.70
2022-10-09T06:24:32.558Z,5.57
2022-10-09T06:27:01.238Z,4.30
2022-10-09T06:29:30.052Z,5.00
2022-10-09T06:31:57.559Z,4.73
2022-10-09T06:34:24.788Z,5.20
2022-10-09T06:36:52.070Z,5.40
2022-10-09T06:39:19.582Z,4.97
2022-10-09T06:41:46.882Z,5.53
2022-10-09T06:44:17.177Z,4.67
2022-10-09T06:46:48.395Z,5.10
2022-10-09T06:49:15.662Z,5.53
2022-10-09T06:51:43.079Z,9.70
2022-10-09T06:54:14.229Z,5.67
2022-10-09T06:56:41.513Z,5.03
2022-10-09T06:59:11.280Z,4.87
2022-10-09T07:01:40.217Z,5.90
2022-10-09T07:04:13.553Z,5.10
2022-10-09T07:06:44.434Z,5.43
2022-10-09T07:09:14.629Z,5.73
2022-10-09T07:11:44.580Z,5.67
2022-10-09T07:14:15.758Z,5.70
2022-10-09T07:16:47.316Z,5.60
2022-10-09T07:19:17.526Z,6.73
2022-10-09T07:21:48.247Z,6.40
2022-10-09T07:24:16.620Z,5.70
2022-10-09T07:26:46.467Z,5.83
2022-10-09T07:29:18.010Z,5.77
2022-10-09T07:31:46.959Z,5.40
2022-10-09T07:34:14.402Z,6.43
2022-10-09T07:36:41.681Z,5.50
2022-10-09T07:39:08.982Z,5.30
2022-10-09T07:41:36.293Z,6.03
2022-10-09T07:44:03.839Z,6.23
2022-10-09T07:46:33.895Z,5.03
2022-10-09T07:49:04.077Z,5.30
2022-10-09T07:51:32.724Z,5.70
2022-10-09T07:54:01.851Z,5.87
2022-10-09T07:56:32.897Z,5.63
2022-10-09T07:59:02.631Z,5.27
2022-10-09T08:01:32.468Z,5.67
2022-10-09T08:04:02.642Z,5.83
2022-10-09T08:06:30.586Z,5.50
2022-10-09T08:09:01.454Z,5.83
2022-10-09T08:11:29.875Z,5.83
2022-10-09T08:13:57.655Z,5.03
2022-10-09T08:16:27.062Z,5.60
2022-10-09T08:18:57.360Z,5.10
2022-10-09T08:21:28.522Z,5.03
2022-10-09T08:23:58.032Z,5.40
2022-10-09T08:26:27.663Z,4.93
2022-10-09T08:28:57.488Z,4.90
2022-10-09T08:31:26.266Z,4.83
2022-10-09T08:33:55.467Z,5.20
2022-10-09T08:36:25.714Z,4.70
2022-10-09T08:38:53.352Z,4.90
2022-10-09T08:41:34.407Z,4.37
2022-10-09T08:44:10.111Z,4.57
2022-10-09T08:47:03.882Z,4.30
2022-10-09T08:49:45.141Z,4.37
2022-10-09T08:52:27.810Z,3.73
2022-10-09T08:55:03.971Z,4.27
2022-10-09T08:57:34.577Z,4.27
2022-10-09T09:00:01.877Z,5.23
2022-10-09T09:03:04.692Z,4.33
2022-10-09T09:05:45.407Z,4.43
2022-10-09T09:08:31.277Z,3.60
2022-10-09T09:11:21.429Z,3.83
2022-10-09T09:17:16.824Z,3.00
2022-10-09T09:20:01.447Z,3.97
2022-10-09T09:22:30.204Z,3.50
2022-10-09T09:25:01.008Z,3.37
2022-10-09T09:27:33.183Z,2.83
2022-10-09T09:30:13.294Z,2.40
2022-10-09T09:32:49.678Z,2.50
2022-10-09T09:35:25.407Z,5.23
2022-10-09T09:37:53.684Z,2.43
2022-10-09T09:40:37.156Z,2.43
2022-10-09T09:43:18.769Z,2.40
2022-10-09T09:45:47.399Z,2.30
2022-10-09T09:48:21.549Z,2.13
2022-10-09T09:51:10.176Z,2.23
2022-10-09T09:53:45.796Z,2.70
2022-10-09T09:56:15.292Z,2.50
2022-10-09T09:58:47.898Z,2.50
2022-10-09T10:01:25.810Z,2.37
2022-10-09T10:03:56.333Z,2.60
2022-10-09T10:06:29.648Z,2.70
2022-10-09T10:09:04.551Z,1.80
2022-10-09T10:11:35.770Z,2.73
2022-10-09T10:14:08.114Z,2.40
2022-10-09T10:16:38.767Z,2.20
2022-10-09T10:19:17.010Z,2.20
2022-10-09T10:21:48.998Z,2.47
2022-10-09T10:24:27.657Z,1.93
2022-10-09T10:27:05.320Z,1.90
2022-10-09T10:29:41.450Z,2.17
2022-10-09T10:32:18.270Z,2.00
2022-10-09T10:34:51.797Z,2.07
2022-10-09T10:37:33.098Z,2.20
2022-10-09T10:40:12.469Z,1.83
2022-10-09T10:42:59.448Z,1.77
2022-10-09T10:45:35.540Z,1.60
2022-10-09T10:48:05.215Z,1.43
2022-10-09T10:50:43.324Z,2.17
2022-10-09T10:53:27.158Z,1.60
2022-10-09T10:56:04.872Z,2.20
2022-10-09T10:58:51.101Z,2.50
2022-10-09T11:01:35.274Z,2.10
2022-10-09T11:04:35.715Z,2.07
2022-10-09T11:07:19.377Z,1.63
2022-10-09T11:10:02.787Z,2.20
2022-10-09T11:12:48.303Z,1.80
2022-10-09T11:15:39.327Z,2.00
2022-10-09T11:18:36.593Z,2.33
2022-10-09T11:21:32.510Z,2.37
2022-10-09T11:24:58.888Z,1.90
2022-10-09T11:27:35.627Z,2.47
2022-10-09T11:30:09.695Z,1.73
2022-10-09T11:32:52.556Z,2.00
2022-10-09T11:35:22.967Z,2.10
2022-10-09T11:38:01.106Z,2.27
2022-10-09T11:40:33.927Z,2.50
2022-10-09T11:43:20.883Z,2.30
2022-10-09T11:45:56.860Z,2.20
2022-10-09T11:48:37.556Z,2.07
2022-10-09T11:51:14.940Z,2.27
2022-10-09T11:53:44.860Z,2.13
2022-10-09T11:56:24.307Z,2.07
2022-10-09T11:59:03.951Z,2.20
2022-10-09T12:01:37.054Z,1.90
2022-10-09T12:04:27.775Z,1.80
2022-10-09T12:07:09.427Z,1.47
2022-10-09T12:09:42.498Z,1.63
2022-10-09T12:12:23.256Z,2.03
2022-10-09T12:14:52.965Z,1.73
2022-10-09T12:17:35.079Z,2.23
2022-10-09T12:20:15.810Z,2.47
2022-10-09T12:23:07.210Z,2.30
2022-10-09T12:25:43.840Z,2.00
2022-10-09T12:28:28.006Z,1.97
2022-10-09T12:30:59.043Z,2.20
2022-10-09T12:33:34.555Z,2.27
2022-10-09T12:36:11.789Z,2.10
2022-10-09T12:38:39.740Z,1.73
2022-10-09T12:41:20.953Z,1.97
2022-10-09T12:43:52.494Z,2.10
2022-10-09T12:46:40.582Z,2.17
2022-10-09T12:49:20.923Z,2.03
2022-10-09T12:51:56.463Z,2.30
2022-10-09T12:54:25.463Z,1.83
2022-10-09T12:56:55.480Z,2.13
2022-10-09T12:59:25.868Z,1.93
2022-10-09T13:01:59.144Z,2.20
2022-10-09T13:04:30.541Z,2.23
2022-10-09T13:07:02.947Z,2.00
2022-10-09T13:09:37.820Z,1.97
2022-10-09T13:12:15.422Z,1.67
2022-10-09T13:14:45.381Z,2.60
2022-10-09T13:17:28.278Z,2.10
2022-10-09T13:19:58.579Z,2.00
2022-10-09T13:22:32.166Z,1.57
2022-10-09T13:25:02.494Z,1.60
2022-10-09T13:27:34.223Z,1.83
2022-10-09T13:30:02.671Z,1.43
2022-10-09T13:32:29.976Z,1.63
2022-10-09T13:34:58.181Z,1.33
2022-10-09T13:37:27.746Z,1.60
2022-10-09T13:40:01.000Z,1.70
2022-10-09T13:42:37.118Z,1.60
2022-10-09T13:45:05.547Z,1.70
2022-10-09T13:47:32.861Z,1.77
2022-10-09T13:50:00.212Z,1.40
2022-10-09T13:52:28.920Z,1.20
2022-10-09T13:54:56.265Z,1.60
2022-10-09T13:57:23.591Z,1.40
2022-10-09T13:59:51.110Z,1.57
2022-10-09T14:02:18.935Z,1.83
2022-10-09T14:04:46.345Z,1.60
2022-10-09T14:07:13.745Z,1.43
2022-10-09T14:09:42.570Z,1.50
2022-10-09T14:12:10.364Z,1.50
2022-10-09T14:14:37.599Z,1.23
2022-10-09T14:17:05.011Z,1.30
2022-10-09T14:19:32.364Z,1.33
2022-10-09T14:21:59.745Z,1.67
2022-10-09T14:24:27.680Z,1.57
2022-10-09T14:26:56.295Z,1.40
2022-10-09T14:29:23.653Z,1.93
2022-10-09T14:31:51.776Z,1.53
2022-10-09T14:34:19.366Z,1.50
2022-10-09T14:36:46.787Z,1.40
2022-10-09T14:39:14.215Z,1.47
2022-10-09T14:41:41.466Z,1.70
2022-10-09T14:44:11.045Z,1.60
2022-10-09T14:46:39.308Z,1.50
2022-10-09T14:49:08.755Z,1.30
2022-10-09T14:51:38.881Z,1.40
2022-10-09T14:54:08.334Z,1.10
2022-10-09T14:56:36.328Z,1.10
2022-10-09T14:59:05.913Z,1.30
2022-10-09T15:01:35.821Z,1.43
2022-10-09T15:04:04.382Z,1.70
2022-10-09T15:06:32.766Z,1.30
2022-10-09T15:09:05.328Z,1.43
2022-10-09T15:11:35.257Z,1.67
2022-10-09T15:14:04.641Z,1.70
2022-10-09T15:16:32.065Z,1.40
2022-10-09T15:19:01.133Z,1.40
2022-10-09T15:21:32.180Z,1.63
2022-10-09T15:24:01.570Z,1.67
2022-10-09T15:26:32.863Z,1.90
2022-10-09T15:29:03.171Z,1.50
2022-10-09T15:31:33.292Z,1.93
2022-10-09T15:34:03.484Z,1.43
2022-10-09T15:36:37.609Z,1.80
2022-10-09T15:39:07.387Z,2.00
2022-10-09T15:41:37.781Z,1.80
2022-10-09T15:44:08.102Z,1.23
2022-10-09T15:46:35.479Z,1.63
2022-10-09T15:49:04.207Z,2.20
2022-10-09T15:51:33.187Z,1.83
2022-10-09T15:54:01.352Z,1.33
2022-10-09T15:56:29.856Z,1.20
2022-10-09T15:58:58.926Z,1.60
2022-10-09T16:01:26.690Z,1.97
2022-10-09T16:03:58.547Z,1.47
2022-10-09T16:06:27.217Z,1.63
2022-10-09T16:08:56.668Z,1.40
2022-10-09T16:11:26.427Z,1.70
2022-10-09T16:13:55.685Z,1.90
2022-10-09T16:16:25.756Z,1.47
2022-10-09T16:18:53.667Z,1.90
2022-10-09T16:21:24.254Z,1.60
2022-10-09T16:23:58.522Z,2.50
2022-10-09T16:26:28.585Z,2.10
2022-10-09T16:28:56.070Z,2.63
2022-10-09T16:31:26.948Z,2.00
2022-10-09T16:33:54.892Z,2.20
2022-10-09T16:36:22.618Z,2.10
2022-10-09T16:38:49.936Z,2.40
2022-10-09T16:41:21.681Z,1.83
2022-10-09T16:43:52.138Z,2.00
2022-10-09T16:46:23.046Z,1.83
2022-10-09T16:48:51.302Z,2.33
2022-10-09T16:51:21.556Z,1.90
2022-10-09T16:53:50.291Z,1.93
2022-10-09T16:56:21.612Z,2.57
2022-10-09T16:58:49.323Z,1.87
2022-10-09T17:01:20.204Z,2.40
2022-10-09T17:03:53.442Z,1.97
2022-10-09T17:06:23.503Z,2.13
2022-10-09T17:08:52.335Z,2.03
2022-10-09T17:11:22.472Z,2.23
2022-10-09T17:13:49.903Z,2.23
2022-10-09T17:16:23.915Z,2.40
2022-10-09T17:18:51.344Z,2.73
2022-10-09T17:21:19.053Z,3.53
2022-10-09T17:23:47.346Z,4.53
2022-10-09T17:26:18.637Z,2.73
2022-10-09T17:28:48.685Z,2.60
2022-10-09T17:31:20.663Z,3.23
2022-10-09T17:33:49.823Z,3.27
2022-10-09T17:36:21.068Z,2.70
2022-10-09T17:38:50.803Z,2.77
2022-10-09T17:41:21.689Z,2.63
2022-10-09T17:43:50.591Z,2.83
2022-10-09T17:46:19.221Z,3.03
2022-10-09T17:48:50.004Z,2.80
2022-10-09T17:51:21.079Z,2.93
2022-10-09T17:53:48.665Z,2.83
2022-10-09T17:56:16.196Z,2.97
2022-10-09T17:58:44.603Z,2.80
2022-10-09T18:01:14.436Z,2.50
2022-10-09T18:03:42.580Z,2.40
2022-10-09T18:06:15.159Z,2.70
2022-10-09T18:08:43.415Z,2.37
2022-10-09T18:11:14.717Z,2.80
2022-10-09T18:13:44.081Z,3.23
2022-10-09T18:16:15.928Z,3.13
2022-10-09T18:18:44.645Z,3.00
2022-10-09T18:21:18.079Z,3.20
2022-10-09T18:23:46.905Z,2.63
2022-10-09T18:26:18.050Z,2.67
2022-10-09T18:28:48.380Z,3.53
2022-10-09T18:31:20.853Z,2.87
2022-10-09T18:33:48.584Z,4.37
2022-10-09T18:36:19.697Z,3.97
2022-10-09T18:38:50.014Z,4.47
2022-10-09T18:41:18.753Z,3.30
2022-10-09T18:43:47.265Z,3.30
2022-10-09T18:46:17.781Z,8.23
2022-10-09T18:48:46.357Z,3.70
2022-10-09T18:51:17.470Z,3.60
2022-10-09T18:53:51.477Z,3.27
2022-10-09T18:56:21.160Z,3.47
2022-10-09T18:58:51.139Z,3.77
2022-10-09T19:01:20.174Z,3.30
2022-10-09T19:03:50.045Z,3.13
2022-10-09T19:06:18.224Z,3.17
2022-10-09T19:08:45.986Z,3.60
2022-10-09T19:11:14.587Z,2.77
2022-10-09T19:13:42.906Z,3.30
2022-10-09T19:16:10.514Z,3.53
2022-10-09T19:18:39.618Z,3.50
2022-10-09T19:21:11.756Z,3.53
2022-10-09T19:23:39.251Z,3.10
2022-10-09T19:26:06.668Z,2.90
2022-10-09T19:28:37.806Z,3.60
2022-10-09T19:33:59.972Z,4.10
2022-10-09T19:36:27.286Z,3.80
2022-10-09T19:38:54.822Z,3.37
2022-10-09T19:41:22.151Z,3.47
2022-10-09T19:43:49.467Z,3.47
2022-10-09T19:46:20.045Z,3.00
2022-10-09T19:48:47.809Z,3.07
2022-10-09T19:51:21.036Z,3.27
2022-10-09T19:53:50.916Z,3.67
2022-10-09T19:56:21.419Z,3.53
2022-10-09T19:58:49.942Z,3.03
2022-10-09T20:01:20.111Z,3.50
2022-10-09T20:03:48.960Z,3.77
2022-10-09T20:06:17.555Z,4.23
2022-10-09T20:08:45.271Z,5.23
2022-10-09T20:11:13.805Z,3.70
2022-10-09T20:13:42.700Z,3.50
2022-10-09T20:16:13.005Z,3.33
2022-10-09T20:18:42.368Z,3.63
2022-10-09T20:21:11.577Z,3.30
2022-10-09T20:23:40.729Z,3.43
2022-10-09T20:26:11.317Z,3.17
2022-10-09T20:28:39.197Z,3.33
2022-10-09T20:31:10.539Z,3.10
2022-10-09T20:33:39.128Z,2.73
2022-10-09T20:36:08.126Z,2.87
2022-10-09T20:38:35.818Z,3.87
2022-10-09T20:41:09.285Z,3.30
2022-10-09T20:43:37.667Z,3.30
2022-10-09T20:46:07.243Z,3.20
2022-10-09T20:48:34.636Z,2.83
2022-10-09T20:51:01.992Z,3.20
2022-10-09T20:53:29.454Z,3.00
2022-10-09T20:56:00.361Z,2.60
2022-10-09T20:58:29.695Z,3.43
2022-10-09T21:00:57.165Z,2.47
2022-10-09T21:03:24.860Z,2.40
2022-10-09T21:05:52.871Z,3.10
2022-10-09T21:08:20.219Z,2.97
2022-10-09T21:10:49.666Z,2.23
2022-10-09T21:13:17.347Z,2.60
2022-10-09T21:15:48.991Z,2.30
2022-10-09T21:18:18.684Z,2.60
2022-10-09T21:20:48.349Z,2.60
2022-10-09T21:23:18.854Z,4.40
2022-10-09T21:25:51.726Z,3.70
2022-10-09T21:28:20.895Z,2.80
2022-10-09T21:30:50.078Z,3.53
2022-10-09T21:33:17.951Z,3.50
2022-10-09T21:35:49.225Z,2.57
2022-10-09T21:38:20.118Z,2.60
2022-10-09T21:40:49.385Z,4.20
2022-10-09T21:43:17.695Z,3.00
2022-10-09T21:45:50.907Z,2.13
2022-10-09T21:48:18.399Z,2.57
2022-10-09T21:50:46.166Z,2.30
2022-10-09T21:53:13.736Z,3.50
2022-10-09T21:55:41.353Z,2.47
2022-10-09T21:58:10.460Z,2.30
2022-10-09T22:00:37.733Z,2.47
2022-10-09T22:03:06.435Z,2.77
2022-10-09T22:05:33.776Z,2.13
2022-10-09T22:08:01.053Z,2.30
2022-10-09T22:10:28.347Z,2.83
2022-10-09T22:12:55.662Z,2.20
2022-10-09T22:15:23.067Z,2.87
2022-10-09T22:17:50.331Z,2.80
2022-10-09T22:20:19.444Z,2.50
2022-10-09T22:22:46.768Z,2.00
2022-10-09T22:25:14.324Z,2.17
2022-10-09T22:27:41.599Z,2.47
2022-10-09T22:30:10.634Z,2.20
2022-10-09T22:32:37.958Z,2.53
2022-10-09T22:35:06.287Z,2.37
2022-10-09T22:37:34.917Z,2.23
2022-10-09T22:40:02.215Z,2.50
2022-10-09T22:42:29.459Z,2.00
2022-10-09T22:44:56.778Z,2.20
2022-10-09T22:47:24.183Z,2.27
2022-10-09T22:49:51.488Z,2.73
2022-10-09T22:52:18.740Z,2.83
2022-10-09T22:54:47.345Z,2.43
2022-10-09T22:57:14.993Z,2.00
2022-10-09T22:59:42.644Z,1.97
2022-10-09T23:02:10.008Z,2.43
2022-10-09T23:04:37.379Z,2.10
2022-10-09T23:07:05.397Z,2.10
2022-10-09T23:09:33.368Z,2.40
2022-10-09T23:12:02.041Z,2.47
2022-10-09T23:14:29.595Z,2.10
2022-10-09T23:16:56.870Z,2.40
2022-10-09T23:19:24.228Z,1.70
2022-10-09T23:21:51.452Z,2.13
2022-10-09T23:24:18.758Z,2.20
2022-10-09T23:26:51.102Z,2.30
2022-10-09T23:29:21.102Z,2.37
2022-10-09T23:31:51.831Z,1.67
2022-10-09T23:34:19.148Z,2.20
2022-10-09T23:36:46.447Z,2.60
2022-10-09T23:39:13.854Z,1.70
2022-10-09T23:41:41.163Z,1.80
2022-10-09T23:44:08.448Z,2.20
2022-10-09T23:46:37.770Z,1.97
2022-10-09T23:49:05.847Z,1.83
2022-10-09T23:51:33.240Z,2.00
2022-10-09T23:54:00.652Z,1.60
2022-10-09T23:56:30.299Z,2.23
2022-10-09T23:59:00.339Z,1.70
